• Join FlightAware (Why Join?)
  • Login
  • US Flag 
12:18AM EST


 

Airport Tracker/Info


-or-


 

Live Flight TrackerFlight Track Log ✈ SKW6330 ✈ 01-May-2013 ✈ KLAX - KFAT

Flight Track Log - Related Links

Times and Time Zones

All times are in EDT time to prevent confusion due to time zone crossing. See the SKW6330 flight status page for this flight to view local times or setup timezone preferences in your user account.

Time Position Orientation Groundspeed Altitude Reporting Facility
EDT Latitude Longitude Course Direction KTS MPH feet Rate Location/Type
08:47PM 33.9500 -118.4667 335° Northwest 165 190 1,900  Level Southern California TRACON
08:48PM 33.9564 -118.5208 278° West 191 220 3,400 1,320 Climbing Los Angeles Center
08:49PM 33.9833 -118.5797 299° West 203 234 4,600 1,200 Climbing Los Angeles Center
08:50PM 34.0183 -118.6361 307° West 216 249 6,000 1,140 Climbing Los Angeles Center
08:51PM 34.2924 -118.5879 338° Northwest  Level FlightAware Approximate
08:51PM 34.0831 -118.6531 348° North 219 252 7,000  Level Los Angeles Center
08:52PM 34.3526 -118.6199 335° Northwest  Level FlightAware Approximate
08:52PM 34.1467 -118.6572 357° North 223 257 7,900  Level Los Angeles Center
08:53PM 34.2144 -118.6617 357° North 233 268 8,000 360 Climbing Los Angeles Center
08:54PM 34.2839 -118.6653 358° North 245 282 8,700 720 Climbing Los Angeles Center
08:55PM 34.3392 -118.6686 357° North 248 285 9,500 960 Climbing Los Angeles Center
08:56PM 34.4183 -118.6892 348° North 248 285 10,800 1,260 Climbing Los Angeles Center
08:57PM 34.4797 -118.7247 334° Northwest 242 278 12,200 1,500 Climbing Los Angeles Center
08:58PM 34.5494 -118.7550 340° North 219 252 13,900 1,140 Climbing Los Angeles Center
08:59PM 34.6069 -118.7767 343° North 217 250 14,900 900 Climbing Los Angeles Center
09:00PM 34.6797 -118.8028 344° North 227 261 16,000 900 Climbing Los Angeles Center
09:01PM 34.7400 -118.8300 340° North 229 264 16,800 720 Climbing Los Angeles Center
09:02PM 34.8028 -118.8581 340° North 238 274 17,600 720 Climbing Los Angeles Center
09:03PM 34.8683 -118.8725 350° North 241 277 18,400 720 Climbing Los Angeles Center
09:04PM 34.9433 -118.8803 355° North 243 280 19,200 720 Climbing Los Angeles Center
09:05PM 35.0108 -118.8914 352° North 245 282 19,900 360 Climbing Los Angeles Center
09:06PM 35.0806 -118.9028 352° North 251 289 20,000  Climbing Los Angeles Center
09:07PM 35.1533 -118.9131 353° North 262 302 20,000  Level Los Angeles Center
09:08PM 35.2369 -118.9250 353° North 256 295 20,000  Level Los Angeles Center
09:09PM 35.3072 -118.9322 355° North 254 292 20,000  Level Los Angeles Center
09:10PM 35.3778 -118.9425 353° North 255 293 20,000  Level Los Angeles Center
09:11PM 35.4458 -118.9531 353° North 250 288 20,000  Level Los Angeles Center
09:12PM 35.5161 -118.9642 353° North 253 291 20,000  Level Los Angeles Center
09:14PM 35.5847 -118.9742 353° North 251 289 20,000  Level Los Angeles Center
09:15PM 35.6686 -118.9864 353° North 253 291 20,000  Level Los Angeles Center
09:16PM 35.7381 -118.9961 354° North 251 289 20,000  Level Los Angeles Center
09:17PM 35.8075 -119.0081 352° North 252 290 20,000  Level Los Angeles Center
09:18PM 35.8756 -119.0197 352° North 249 287 20,000 -600 Level Los Angeles Center
09:19PM 35.9611 -119.0433 347° North 264 304 18,700 -1,680 Descending Los Angeles Center
09:20PM 36.0369 -119.0761 341° North 286 329 16,600 -2,280 Descending Oakland Center
09:21PM 36.1314 -119.1272 336° Northwest 302 348 14,100 -1,320 Descending Oakland Center
09:22PM 36.2047 -119.1664 337° Northwest 297 342 14,000 -120 Descending Oakland Center
09:23PM 36.2742 -119.1975 340° North 271 312 13,900 -780 Descending Oakland Center
09:24PM 36.3444 -119.2300 340° North 272 313 12,500 -1,560 Descending Oakland Center
09:25PM 36.4175 -119.2625 340° North 278 320 10,800 -1,680 Descending Oakland Center
09:26PM 36.4914 -119.2953 340° North 282 325 9,200 -1,620 Descending Oakland Center
09:27PM 36.5575 -119.3356 334° Northwest 270 311 7,500 -1,620 Descending Oakland Center
09:28PM 36.5983 -119.4103 304° West 259 298 6,000 -1,680 Descending Oakland Center
09:29PM 36.6456 -119.4933 305° West 246 283 4,100 -1,260 Descending Oakland Center
09:30PM 36.6850 -119.5594 307° West 241 277 3,500 -600 Descending Oakland Center